Terminal Aerodrome Forecast
Issued by NWS

Home | Current Version | Previous Version | Text Only | Print | Product List | Glossary On
Versions: 1 2 3 4 5 6 7 8 9 10 11 12 13 14 15 16 17 18 19 20 21 22 23 24 25 26 27 28 29 30 31 32 33 34 35 36 37 38 39 40
000
FTAK31 PANC 152100 AAA
TAFAAQ
TAF AMD
PAAQ 152100Z 1521/1618 35013KT P6SM SCT070
     FM152200 06015G25KT P6SM VCSH BKN070
     FM160100 07022G34KT P6SM VCSH SCT040 BKN070
     FM160700 05014G22KT P6SM VCSH SCT040 BKN070
     FM161200 03011KT 4SM -SN OVC040=

USA.gov is the U.S. government's official web portal to all federal, state and local government web resources and services.